Bingol, Turkey

6:30 PM +03 on December 09, 2016 (GMT +0300)
Bingol | | Change Station

Elev 0 ft 38.86 °N, 40.59 °E | Updated 2 hours ago

Clear
Clear
36 °F
Feels Like 36 °F
N
2
Wind Variable Wind from West

Today
High -- | Low -- °F
--% Chance of Precip.
Yesterday
High -- | Low -- °F
Precip. -- in
Pressure 30.18 in
Visibility 6.2 miles
Clouds Scattered Clouds 3500 ft
Mostly Cloudy 10000 ft
Dew Point 7 °F
Humidity 30%
Rainfall 0.00 in
Snow Depth Not available.
7:24 AM 4:55 PM
Waxing Gibbous, 75% visible
METAR LTCU 091250Z 26002KT 9999 SCT035 BKN100 02/M14 Q1022
Pressure 30.18 in
Visibility 6.2 miles
Clouds Scattered Clouds 3500 ft
Mostly Cloudy 10000 ft
Dew Point 7 °F
Humidity 30%
Rainfall 0.00 in
Snow Depth Not available.
7:24 AM 4:55 PM
Waxing Gibbous, 75% visible
METAR LTCU 091250Z 26002KT 9999 SCT035 BKN100 02/M14 Q1022

10-Day Weather Forecast

×

Almanac

Astronomy

Dec. 09, 2016 Rise Set
Actual Time
Civil Twilight
Nautical Twilight
Astronomical Twilight
Moon
Length of Visible Light
Length of Day
Tomorrow will be .
, % of the Moon is Illuminated

Today's Extremes

Country Highs Country Lows

Community

WunderPhotos

Upload Photos

1,956,432 photos uploaded!

WunderBlog® & News

Nearby

Air Quality

  Air Quality AQ Index Pollutant
Not available.

Snow Depth

Station Depth Elevation

Earthquake Activity

City Distance Mag. Time & Date
Minimum magnitude displayed is 2.5.

Coastal Water Temperatures

Place Temperature

Stations

Nearby Weather Stations

Station Location Temp. Windchill Dew Point Humidity Wind Precip. Elev Updated Type